createdAt,value
2018-06-13T00:00:21.515Z,60.88
2018-06-13T00:02:50.922Z,60.86
2018-06-13T00:05:20.567Z,60.91
2018-06-13T00:07:50.097Z,61.38
2018-06-13T00:10:19.247Z,61.53
2018-06-13T00:12:48.891Z,61.15
2018-06-13T00:15:18.402Z,61.69
2018-06-13T00:17:47.479Z,61.80
2018-06-13T00:20:17.068Z,61.48
2018-06-13T00:22:46.707Z,61.54
2018-06-13T00:25:16.082Z,61.92
2018-06-13T00:27:45.656Z,61.66
2018-06-13T00:30:15.299Z,61.56
2018-06-13T00:32:44.725Z,61.57
2018-06-13T00:35:14.137Z,61.68
2018-06-13T00:37:43.545Z,62.20
2018-06-13T00:40:13.114Z,62.42
2018-06-13T00:42:42.858Z,62.60
2018-06-13T00:45:12.536Z,62.49
2018-06-13T00:54:08.056Z,62.58
2018-06-13T00:56:37.916Z,62.79
2018-06-13T00:59:07.548Z,62.62
2018-06-13T01:01:36.912Z,62.39
2018-06-13T01:04:06.683Z,62.47
2018-06-13T01:06:36.059Z,62.28
2018-06-13T01:09:06.877Z,62.55
2018-06-13T01:11:36.765Z,62.56
2018-06-13T01:14:06.272Z,62.46
2018-06-13T01:16:35.779Z,62.63
2018-06-13T01:19:05.471Z,62.85
2018-06-13T01:21:34.964Z,62.98
2018-06-13T01:24:04.375Z,63.24
2018-06-13T01:26:34.138Z,63.14
2018-06-13T01:29:03.555Z,63.42
2018-06-13T01:31:33.137Z,63.78
2018-06-13T01:34:02.843Z,63.62
2018-06-13T01:36:32.363Z,63.81
2018-06-13T01:39:01.746Z,63.68
2018-06-13T01:41:31.487Z,63.50
2018-06-13T01:44:00.967Z,63.83
2018-06-13T01:46:30.442Z,64.28
2018-06-13T01:49:00.157Z,64.17
2018-06-13T01:51:29.646Z,64.67
2018-06-13T01:53:59.097Z,64.67
2018-06-13T01:56:28.905Z,64.39
2018-06-13T01:58:58.279Z,64.53
2018-06-13T02:01:27.809Z,64.37
2018-06-13T02:03:57.405Z,64.16
2018-06-13T02:06:26.915Z,64.12
2018-06-13T02:08:56.645Z,64.29
2018-06-13T02:11:26.357Z,64.77
2018-06-13T02:13:55.753Z,64.85
2018-06-13T02:16:26.181Z,64.39
2018-06-13T02:18:55.882Z,64.50
2018-06-13T02:21:25.173Z,64.40
2018-06-13T02:23:54.781Z,64.49
2018-06-13T02:26:24.370Z,63.70
2018-06-13T02:28:53.635Z,64.39
2018-06-13T02:31:23.363Z,64.23
2018-06-13T02:33:53.174Z,64.00
2018-06-13T02:36:22.557Z,63.97
2018-06-13T02:38:52.293Z,64.12
2018-06-13T02:41:22.078Z,63.76
2018-06-13T02:43:51.518Z,63.88
2018-06-13T02:46:21.024Z,63.95
2018-06-13T02:48:50.557Z,64.52
2018-06-13T02:51:19.977Z,64.39
2018-06-13T02:53:49.521Z,64.32
2018-06-13T02:56:18.921Z,64.05
2018-06-13T02:58:48.341Z,64.45
2018-06-13T03:01:18.249Z,64.19
2018-06-13T03:03:47.881Z,64.49
2018-06-13T03:06:17.255Z,64.64
2018-06-13T03:08:46.764Z,65.00
2018-06-13T03:11:16.473Z,64.76
2018-06-13T03:13:45.693Z,65.60
2018-06-13T03:16:15.317Z,65.24
2018-06-13T03:18:44.919Z,65.28
2018-06-13T03:21:14.371Z,65.81
2018-06-13T03:23:43.883Z,66.04
2018-06-13T03:26:13.630Z,66.68
2018-06-13T03:28:42.827Z,66.57
2018-06-13T03:31:12.571Z,66.79
2018-06-13T03:33:42.281Z,67.11
2018-06-13T03:36:11.678Z,67.13
2018-06-13T03:38:41.269Z,67.01
2018-06-13T03:41:11.250Z,66.54
2018-06-13T03:43:40.681Z,66.53
2018-06-13T03:46:10.421Z,66.67
2018-06-13T03:48:40.219Z,66.18
2018-06-13T03:51:09.605Z,65.59
2018-06-13T03:53:39.314Z,65.78
2018-06-13T03:56:08.850Z,65.50
2018-06-13T03:58:38.385Z,65.16
2018-06-13T04:01:07.891Z,65.28
2018-06-13T04:03:37.644Z,65.83
2018-06-13T04:06:07.266Z,65.25
2018-06-13T04:08:37.026Z,65.37
2018-06-13T04:11:07.281Z,65.47
2018-06-13T04:13:37.462Z,65.92
2018-06-13T04:16:06.959Z,65.63
2018-06-13T04:18:36.606Z,65.43
2018-06-13T04:21:07.217Z,65.75
2018-06-13T04:23:36.845Z,65.09
2018-06-13T04:26:06.465Z,65.47
2018-06-13T04:28:35.616Z,65.01
2018-06-13T04:31:05.288Z,64.50
2018-06-13T04:33:35.570Z,64.93
2018-06-13T04:36:05.234Z,64.88
2018-06-13T04:38:35.190Z,65.08
2018-06-13T04:41:04.839Z,65.24
2018-06-13T04:43:34.413Z,65.08
2018-06-13T04:46:04.138Z,65.44
2018-06-13T04:48:33.706Z,65.23
2018-06-13T04:51:04.197Z,65.74
2018-06-13T04:53:33.644Z,64.99
2018-06-13T04:56:03.533Z,66.01
2018-06-13T04:58:33.602Z,65.73
2018-06-13T05:01:03.651Z,66.40
2018-06-13T05:03:33.686Z,65.84
2018-06-13T05:06:03.101Z,66.35
2018-06-13T05:08:32.661Z,66.57
2018-06-13T05:13:54.904Z,66.66
2018-06-13T05:16:24.308Z,66.96
2018-06-13T05:18:54.392Z,66.73
2018-06-13T05:21:23.993Z,66.69
2018-06-13T05:23:53.318Z,66.34
2018-06-13T05:26:23.078Z,66.96
2018-06-13T05:28:52.932Z,67.00
2018-06-13T05:31:22.139Z,66.56
2018-06-13T05:33:51.728Z,66.52
2018-06-13T05:36:21.403Z,66.95
2018-06-13T05:38:50.704Z,66.35
2018-06-13T05:41:19.964Z,66.75
2018-06-13T05:43:49.508Z,66.57
2018-06-13T05:46:18.718Z,66.16
2018-06-13T05:48:48.179Z,65.50
2018-06-13T05:51:18.195Z,65.51
2018-06-13T05:53:47.935Z,65.75
2018-06-13T05:56:17.767Z,65.50
2018-06-13T05:58:47.071Z,65.83
2018-06-13T06:01:16.412Z,65.06
2018-06-13T06:03:45.854Z,64.88
2018-06-13T06:06:16.076Z,64.94
2018-06-13T06:08:45.552Z,64.98
2018-06-13T06:11:15.119Z,65.37
2018-06-13T06:13:46.047Z,65.26
2018-06-13T06:16:16.704Z,65.67
2018-06-13T06:18:46.290Z,65.15
2018-06-13T06:21:15.780Z,64.46
2018-06-13T06:23:45.002Z,64.80
2018-06-13T06:26:15.136Z,63.80
2018-06-13T06:28:44.440Z,64.73
2018-06-13T06:31:13.676Z,64.36
2018-06-13T06:33:43.720Z,65.34
2018-06-13T06:36:13.696Z,65.52
2018-06-13T06:38:44.162Z,65.97
2018-06-13T06:41:14.172Z,65.73
2018-06-13T06:43:43.818Z,65.94
2018-06-13T06:46:13.997Z,66.08
2018-06-13T06:48:43.778Z,65.79
2018-06-13T06:51:13.316Z,65.60
2018-06-13T06:53:42.777Z,65.59
2018-06-13T06:56:14.184Z,65.76
2018-06-13T06:58:43.654Z,64.90
2018-06-13T07:01:13.676Z,64.89
2018-06-13T07:03:43.949Z,64.39
2018-06-13T07:06:13.389Z,64.90
2018-06-13T07:08:43.471Z,65.13
2018-06-13T07:11:13.854Z,64.78
2018-06-13T07:13:43.527Z,65.00
2018-06-13T07:16:13.232Z,64.70
2018-06-13T07:18:43.000Z,64.43
2018-06-13T07:21:12.727Z,64.27
2018-06-13T07:23:42.574Z,64.07
2018-06-13T07:26:11.947Z,63.89
2018-06-13T07:28:41.615Z,63.63
2018-06-13T07:31:11.737Z,63.51
2018-06-13T07:33:41.586Z,60.67
2018-06-13T07:36:11.332Z,56.57
2018-06-13T07:38:41.176Z,56.65
2018-06-13T07:41:11.184Z,55.58
2018-06-13T07:43:40.978Z,53.95
2018-06-13T07:46:10.563Z,52.98
2018-06-13T07:48:40.029Z,52.25
2018-06-13T07:51:09.611Z,52.11
2018-06-13T07:53:39.851Z,50.54
2018-06-13T07:56:09.355Z,48.16
2018-06-13T07:58:39.409Z,47.62
2018-06-13T08:01:09.239Z,47.62
2018-06-13T08:03:38.889Z,49.45
2018-06-13T08:06:08.250Z,50.00
2018-06-13T08:08:38.181Z,49.86
2018-06-13T08:11:08.003Z,49.47
2018-06-13T08:13:37.449Z,50.02
2018-06-13T08:16:07.032Z,51.05
2018-06-13T08:18:36.708Z,50.81
2018-06-13T08:21:06.583Z,50.72
2018-06-13T08:23:36.248Z,50.94
2018-06-13T08:26:05.934Z,50.48
2018-06-13T08:28:35.780Z,50.50
2018-06-13T08:31:05.253Z,50.98
2018-06-13T08:33:35.432Z,50.11
2018-06-13T08:36:05.183Z,49.63
2018-06-13T08:38:35.121Z,49.87
2018-06-13T08:41:05.124Z,50.42
2018-06-13T08:43:34.616Z,50.31
2018-06-13T08:46:04.442Z,50.60
2018-06-13T08:48:34.365Z,50.18
2018-06-13T08:51:04.408Z,50.47
2018-06-13T08:53:34.242Z,50.12
2018-06-13T08:56:03.827Z,50.37
2018-06-13T08:58:33.462Z,50.48
2018-06-13T09:01:03.280Z,50.51
2018-06-13T09:03:32.755Z,50.09
2018-06-13T09:06:02.799Z,50.51
2018-06-13T09:08:32.476Z,50.43
2018-06-13T09:11:02.010Z,50.07
2018-06-13T09:13:32.514Z,50.21
2018-06-13T09:16:02.335Z,50.10
2018-06-13T09:18:31.971Z,48.61
2018-06-13T09:21:01.478Z,48.71
2018-06-13T09:23:31.339Z,48.31
2018-06-13T09:26:01.335Z,47.75
2018-06-13T09:28:30.988Z,48.15
2018-06-13T09:31:00.864Z,48.62
2018-06-13T09:33:30.895Z,46.89
2018-06-13T09:36:00.426Z,48.08
2018-06-13T09:38:30.366Z,47.19
2018-06-13T09:40:59.697Z,46.75
2018-06-13T09:43:29.435Z,46.63
2018-06-13T09:46:03.400Z,46.13
2018-06-13T09:48:28.951Z,46.36
2018-06-13T09:50:58.386Z,45.32
2018-06-13T09:53:28.282Z,43.92
2018-06-13T09:55:57.989Z,45.20
2018-06-13T09:58:27.716Z,45.19
2018-06-13T10:01:14.116Z,44.88
2018-06-13T10:03:43.807Z,44.51
2018-06-13T10:06:13.539Z,45.80
2018-06-13T10:08:43.206Z,46.73
2018-06-13T10:11:13.046Z,46.87
2018-06-13T10:13:43.439Z,47.56
2018-06-13T10:16:13.604Z,48.02
2018-06-13T10:18:42.942Z,49.10
2018-06-13T10:21:12.582Z,48.82
2018-06-13T10:23:42.118Z,50.17
2018-06-13T10:26:11.496Z,49.94
2018-06-13T10:28:41.551Z,49.83
2018-06-13T10:31:12.062Z,49.89
2018-06-13T10:33:41.948Z,49.83
2018-06-13T10:36:11.802Z,49.68
2018-06-13T10:38:41.645Z,49.94
2018-06-13T10:41:11.206Z,50.14
2018-06-13T10:43:41.356Z,50.61
2018-06-13T10:46:10.746Z,50.49
2018-06-13T10:48:40.258Z,50.84
2018-06-13T10:51:10.322Z,51.14
2018-06-13T10:53:40.483Z,51.86
2018-06-13T10:56:10.169Z,51.29
2018-06-13T10:58:39.917Z,50.59
2018-06-13T11:01:09.531Z,51.56
2018-06-13T11:03:39.990Z,51.50
2018-06-13T11:06:09.653Z,51.98
2018-06-13T11:08:39.476Z,51.91
2018-06-13T11:11:09.075Z,52.33
2018-06-13T11:13:39.398Z,52.28
2018-06-13T11:16:09.417Z,52.27
2018-06-13T11:18:38.979Z,52.58
2018-06-13T11:21:08.614Z,52.75
2018-06-13T11:23:38.248Z,52.34
2018-06-13T11:26:07.879Z,52.51
2018-06-13T11:28:38.033Z,52.84
2018-06-13T11:31:07.415Z,52.64
2018-06-13T11:33:36.897Z,52.85
2018-06-13T11:36:06.962Z,52.41
2018-06-13T11:38:37.070Z,52.79
2018-06-13T11:41:06.808Z,52.58
2018-06-13T11:43:36.619Z,52.73
2018-06-13T11:46:05.970Z,52.72
2018-06-13T11:48:35.872Z,52.86
2018-06-13T11:51:06.762Z,52.43
2018-06-13T11:53:36.907Z,52.77
2018-06-13T11:56:06.722Z,52.41
2018-06-13T11:58:36.317Z,52.40
2018-06-13T12:01:06.127Z,53.12
2018-06-13T12:03:36.681Z,52.99
2018-06-13T12:06:06.615Z,53.00
2018-06-13T12:08:36.393Z,52.48
2018-06-13T12:11:06.139Z,52.59
2018-06-13T12:13:36.310Z,51.73
2018-06-13T12:16:06.044Z,51.17
2018-06-13T12:18:35.956Z,50.32
2018-06-13T12:21:05.570Z,49.14
2018-06-13T12:23:35.229Z,50.17
2018-06-13T12:26:05.140Z,49.23
2018-06-13T12:28:34.833Z,49.66
2018-06-13T12:31:04.839Z,49.28
2018-06-13T12:33:34.584Z,49.35
2018-06-13T12:36:03.936Z,49.49
2018-06-13T12:38:33.790Z,48.49
2018-06-13T12:41:03.372Z,48.83
2018-06-13T12:43:33.210Z,48.62
2018-06-13T12:46:02.973Z,48.88
2018-06-13T12:48:32.667Z,48.46
2018-06-13T12:51:02.191Z,47.60
2018-06-13T12:53:31.826Z,47.55
2018-06-13T12:56:01.579Z,46.80
2018-06-13T12:58:31.060Z,46.31
2018-06-13T13:01:01.237Z,46.12
2018-06-13T13:03:31.894Z,45.20
2018-06-13T13:06:01.504Z,44.91
2018-06-13T13:08:31.064Z,45.44
2018-06-13T13:11:01.104Z,44.83
2018-06-13T13:13:31.836Z,44.98
2018-06-13T13:16:01.668Z,44.64
2018-06-13T13:18:31.746Z,44.23
2018-06-13T13:21:01.789Z,44.89
2018-06-13T13:23:31.565Z,44.80
2018-06-13T13:26:01.560Z,44.76
2018-06-13T13:28:31.975Z,44.92
2018-06-13T13:31:01.910Z,45.36
2018-06-13T13:33:31.559Z,45.08
2018-06-13T13:36:01.031Z,45.38
2018-06-13T13:38:31.472Z,45.06
2018-06-13T13:41:00.739Z,44.69
2018-06-13T13:43:31.155Z,44.96
2018-06-13T13:46:00.800Z,44.82
2018-06-13T13:48:30.698Z,44.95
2018-06-13T13:51:00.374Z,44.19
2018-06-13T13:53:30.489Z,44.27
2018-06-13T13:55:59.979Z,44.27
2018-06-13T13:58:29.684Z,43.79
2018-06-13T14:01:00.074Z,44.48
2018-06-13T14:03:29.960Z,43.59
2018-06-13T14:06:00.946Z,43.08
2018-06-13T14:08:30.911Z,43.91
2018-06-13T14:11:00.771Z,43.77
2018-06-13T14:13:30.352Z,44.59
2018-06-13T14:16:01.468Z,44.88
2018-06-13T14:18:31.662Z,44.51
2018-06-13T14:21:01.247Z,44.95
2018-06-13T14:23:31.714Z,45.20
2018-06-13T14:26:01.449Z,45.75
2018-06-13T14:28:31.021Z,45.57
2018-06-13T14:31:01.031Z,45.25
2018-06-13T14:33:31.240Z,45.26
2018-06-13T14:36:00.889Z,45.41
2018-06-13T14:38:30.524Z,45.05
2018-06-13T14:41:00.741Z,45.52
2018-06-13T14:43:30.888Z,46.22
2018-06-13T14:46:00.622Z,46.67
2018-06-13T14:48:30.537Z,47.42
2018-06-13T14:51:00.212Z,46.75
2018-06-13T14:53:30.111Z,45.96
2018-06-13T14:56:04.372Z,46.57
2018-06-13T14:58:35.303Z,47.69
2018-06-13T15:01:04.817Z,47.13
2018-06-13T15:03:35.309Z,46.61
2018-06-13T15:06:04.987Z,46.78
2018-06-13T15:08:35.918Z,46.07
2018-06-13T15:11:05.573Z,46.86
2018-06-13T15:13:35.973Z,47.48
2018-06-13T15:16:05.789Z,47.86
2018-06-13T15:18:35.307Z,48.14
2018-06-13T15:21:05.694Z,47.99
2018-06-13T15:23:36.586Z,47.89
2018-06-13T15:26:06.769Z,48.13
2018-06-13T15:28:36.201Z,47.40
2018-06-13T15:31:06.253Z,47.43
2018-06-13T15:33:38.375Z,47.29
2018-06-13T15:36:08.049Z,47.50
2018-06-13T15:38:37.783Z,48.42
2018-06-13T15:41:07.200Z,48.50
2018-06-13T15:43:36.739Z,48.29
2018-06-13T15:46:06.448Z,49.10
2018-06-13T15:48:36.469Z,48.56
2018-06-13T15:51:06.282Z,48.80
2018-06-13T15:53:36.609Z,48.31
2018-06-13T15:56:06.075Z,47.74
2018-06-13T15:58:35.852Z,48.16
2018-06-13T16:01:05.233Z,48.01
2018-06-13T16:03:35.175Z,47.98
2018-06-13T16:06:05.697Z,48.37
2018-06-13T16:08:35.059Z,48.57
2018-06-13T16:11:04.903Z,47.98
2018-06-13T16:13:34.690Z,48.41
2018-06-13T16:16:04.229Z,47.90
2018-06-13T16:18:33.788Z,48.69
2018-06-13T16:21:03.709Z,48.45
2018-06-13T16:23:33.439Z,48.30
2018-06-13T16:26:03.191Z,48.91
2018-06-13T16:28:33.079Z,48.45
2018-06-13T16:31:02.891Z,48.34
2018-06-13T16:33:32.382Z,48.49
2018-06-13T16:36:01.916Z,48.39
2018-06-13T16:38:32.212Z,48.44
2018-06-13T16:41:01.690Z,48.17
2018-06-13T16:43:31.537Z,48.12
2018-06-13T16:46:01.410Z,48.52
2018-06-13T16:48:31.292Z,47.95
2018-06-13T16:51:12.439Z,48.29
2018-06-13T16:53:54.479Z,48.10
2018-06-13T16:56:23.967Z,48.33
2018-06-13T16:58:54.050Z,48.86
2018-06-13T17:01:24.012Z,49.08
2018-06-13T17:03:54.214Z,49.15
2018-06-13T17:06:24.571Z,49.35
2018-06-13T17:08:54.238Z,49.97
2018-06-13T17:11:24.328Z,49.75
2018-06-13T17:13:54.479Z,49.38
2018-06-13T17:16:24.212Z,50.25
2018-06-13T17:18:54.108Z,50.39
2018-06-13T17:21:23.483Z,50.36
2018-06-13T17:23:53.420Z,50.75
2018-06-13T17:26:23.457Z,50.39
2018-06-13T17:28:53.383Z,50.76
2018-06-13T17:31:23.676Z,50.36
2018-06-13T17:33:53.220Z,50.41
2018-06-13T17:36:23.701Z,50.56
2018-06-13T17:38:54.700Z,51.20
2018-06-13T17:41:24.724Z,51.13
2018-06-13T17:43:54.066Z,51.46
2018-06-13T17:46:23.992Z,51.31
2018-06-13T17:48:54.848Z,51.63
2018-06-13T17:51:25.132Z,51.62
2018-06-13T17:53:56.034Z,52.43
2018-06-13T17:56:26.097Z,52.63
2018-06-13T17:58:56.368Z,52.55
2018-06-13T18:01:26.028Z,52.30
2018-06-13T18:03:56.106Z,52.05
2018-06-13T18:06:26.338Z,52.16
2018-06-13T18:08:56.707Z,52.58
2018-06-13T18:11:27.038Z,52.05
2018-06-13T18:13:57.940Z,51.97
2018-06-13T18:16:28.173Z,52.25
2018-06-13T18:18:57.890Z,51.96
2018-06-13T18:21:27.681Z,51.93
2018-06-13T18:23:57.253Z,52.62
2018-06-13T18:26:27.912Z,53.25
2018-06-13T18:28:57.691Z,54.19
2018-06-13T18:31:27.933Z,54.08
2018-06-13T18:33:57.925Z,54.57
2018-06-13T18:36:27.629Z,54.96
2018-06-13T18:38:57.508Z,55.29
2018-06-13T18:41:27.463Z,55.46
2018-06-13T18:43:57.252Z,55.64
2018-06-13T18:46:27.778Z,55.78
2018-06-13T18:48:57.671Z,56.52
2018-06-13T18:51:27.635Z,56.34
2018-06-13T18:53:58.462Z,56.75
2018-06-13T18:59:11.901Z,56.35
2018-06-13T19:01:41.598Z,56.44
2018-06-13T19:04:12.480Z,56.53
2018-06-13T19:06:42.021Z,56.58
2018-06-13T19:09:12.356Z,56.74
2018-06-13T19:11:42.623Z,57.26
2018-06-13T19:14:12.423Z,57.14
2018-06-13T19:16:42.064Z,57.73
2018-06-13T19:19:11.587Z,57.67
2018-06-13T19:21:41.413Z,57.61
2018-06-13T19:24:11.267Z,56.90
2018-06-13T19:26:40.969Z,56.83
2018-06-13T19:29:11.810Z,56.97
2018-06-13T19:31:41.206Z,56.78
2018-06-13T19:34:11.442Z,57.01
2018-06-13T19:36:41.088Z,56.99
2018-06-13T19:39:11.387Z,56.78
2018-06-13T19:41:40.864Z,56.83
2018-06-13T19:44:10.712Z,56.75
2018-06-13T19:46:40.145Z,56.71
2018-06-13T19:49:09.905Z,56.85
2018-06-13T19:51:39.774Z,57.41
2018-06-13T19:55:16.244Z,57.74
2018-06-13T19:57:47.271Z,58.86
2018-06-13T20:00:16.780Z,57.94
2018-06-13T20:02:51.772Z,57.51
2018-06-13T20:05:26.330Z,57.12
2018-06-13T20:07:58.412Z,57.67
2018-06-13T20:10:27.897Z,58.34
2018-06-13T20:13:02.707Z,57.61
2018-06-13T20:15:37.351Z,57.37
2018-06-13T20:18:12.208Z,57.19
2018-06-13T20:20:42.423Z,57.23
2018-06-13T20:23:12.386Z,57.44
2018-06-13T20:25:46.959Z,57.19
2018-06-13T20:28:22.032Z,57.26
2018-06-13T20:30:57.028Z,57.90
2018-06-13T20:33:27.931Z,57.45
2018-06-13T20:35:57.795Z,57.16
2018-06-13T20:38:27.065Z,57.08
2018-06-13T20:40:56.541Z,56.38
2018-06-13T20:43:26.184Z,56.67
2018-06-13T20:45:55.539Z,56.39
2018-06-13T20:48:25.806Z,57.05
2018-06-13T20:50:55.164Z,57.13
2018-06-13T20:53:25.124Z,57.45
2018-06-13T20:55:55.470Z,57.15
2018-06-13T20:58:25.296Z,57.54
2018-06-13T21:00:54.859Z,57.33
2018-06-13T21:03:25.634Z,56.89
2018-06-13T21:05:55.255Z,56.59
2018-06-13T21:08:24.747Z,56.75
2018-06-13T21:10:54.698Z,56.63
2018-06-13T21:13:24.043Z,55.89
2018-06-13T21:15:55.421Z,55.97
2018-06-13T21:18:25.281Z,56.27
2018-06-13T21:20:55.010Z,56.42
2018-06-13T21:23:24.937Z,56.50
2018-06-13T21:25:55.547Z,56.00
2018-06-13T21:28:24.938Z,56.65
2018-06-13T21:30:54.984Z,56.74
2018-06-13T21:33:24.850Z,56.54
2018-06-13T21:35:54.877Z,56.31
2018-06-13T21:38:24.250Z,56.32
2018-06-13T21:40:53.846Z,55.61
2018-06-13T21:43:23.454Z,55.87
2018-06-13T21:45:52.769Z,55.45
2018-06-13T21:48:22.629Z,55.56
2018-06-13T21:50:52.344Z,55.96
2018-06-13T21:53:21.881Z,55.88
2018-06-13T21:55:51.746Z,55.37
2018-06-13T21:58:21.253Z,55.39
2018-06-13T22:00:50.658Z,55.44
2018-06-13T22:03:20.195Z,55.35
2018-06-13T22:05:50.145Z,55.22
2018-06-13T22:08:19.314Z,55.40
2018-06-13T22:10:49.249Z,55.21
2018-06-13T22:13:18.957Z,55.30
2018-06-13T22:15:49.193Z,55.04
2018-06-13T22:18:18.659Z,55.79
2018-06-13T22:20:48.062Z,55.19
2018-06-13T22:23:18.161Z,55.42
2018-06-13T22:25:48.012Z,55.20
2018-06-13T22:28:17.384Z,55.41
2018-06-13T22:30:47.101Z,54.91
2018-06-13T22:33:17.147Z,55.46
2018-06-13T22:35:46.462Z,55.05
2018-06-13T22:38:15.650Z,54.93
2018-06-13T22:40:45.323Z,55.07
2018-06-13T22:43:14.948Z,55.32
2018-06-13T22:45:44.443Z,55.15
2018-06-13T22:48:13.947Z,55.20
2018-06-13T22:50:43.925Z,55.22
2018-06-13T22:53:13.654Z,54.99
2018-06-13T22:55:43.192Z,55.31
2018-06-13T22:58:12.868Z,55.94
2018-06-13T23:00:59.399Z,55.95
2018-06-13T23:03:28.897Z,55.56
2018-06-13T23:05:59.025Z,55.88
2018-06-13T23:08:28.570Z,55.87
2018-06-13T23:10:57.841Z,56.26
2018-06-13T23:13:27.545Z,56.25
2018-06-13T23:15:57.168Z,56.04
2018-06-13T23:18:27.670Z,56.77
2018-06-13T23:20:57.353Z,56.26
2018-06-13T23:23:27.175Z,56.53
2018-06-13T23:25:57.396Z,56.52
2018-06-13T23:28:27.215Z,55.88
2018-06-13T23:30:56.660Z,56.29
2018-06-13T23:33:26.457Z,56.31
2018-06-13T23:35:56.293Z,56.09
2018-06-13T23:38:25.910Z,55.64
2018-06-13T23:40:55.528Z,55.63
2018-06-13T23:43:24.928Z,56.21
2018-06-13T23:45:54.592Z,55.92
2018-06-13T23:48:24.012Z,56.04
2018-06-13T23:50:53.903Z,55.99
2018-06-13T23:53:23.292Z,55.64
2018-06-13T23:55:52.743Z,55.37
2018-06-13T23:58:23.014Z,56.05
